sensor_id;sensor_type;location;lat;lon;timestamp;P1;durP1;ratioP1;P2;durP2;ratioP2
18623;SDS011;9441;51.420;7.036;2023-04-03T00:00:25;13.53;;;7.13;;
18623;SDS011;9441;51.420;7.036;2023-04-03T00:01:28;10.30;;;6.80;;
18623;SDS011;9441;51.420;7.036;2023-04-03T00:02:29;11.63;;;7.13;;
18623;SDS011;9441;51.420;7.036;2023-04-03T00:03:32;12.07;;;7.37;;
18623;SDS011;9441;51.420;7.036;2023-04-03T00:04:33;11.60;;;6.80;;
18623;SDS011;9441;51.420;7.036;2023-04-03T00:05:35;11.33;;;6.90;;
18623;SDS011;9441;51.420;7.036;2023-04-03T00:06:37;11.87;;;7.33;;
18623;SDS011;9441;51.420;7.036;2023-04-03T00:07:39;13.03;;;7.30;;
18623;SDS011;9441;51.420;7.036;2023-04-03T00:08:40;11.50;;;6.87;;
18623;SDS011;9441;51.420;7.036;2023-04-03T00:09:43;13.83;;;6.60;;
18623;SDS011;9441;51.420;7.036;2023-04-03T00:10:46;16.00;;;7.27;;
18623;SDS011;9441;51.420;7.036;2023-04-03T00:11:48;11.93;;;7.40;;
18623;SDS011;9441;51.420;7.036;2023-04-03T00:12:50;11.07;;;7.00;;
18623;SDS011;9441;51.420;7.036;2023-04-03T00:13:52;15.07;;;7.60;;
18623;SDS011;9441;51.420;7.036;2023-04-03T00:14:53;11.87;;;7.20;;
18623;SDS011;9441;51.420;7.036;2023-04-03T00:15:56;13.27;;;7.50;;
18623;SDS011;9441;51.420;7.036;2023-04-03T00:16:57;14.50;;;7.33;;
18623;SDS011;9441;51.420;7.036;2023-04-03T00:17:59;13.83;;;7.27;;
18623;SDS011;9441;51.420;7.036;2023-04-03T00:19:00;12.63;;;7.37;;
18623;SDS011;9441;51.420;7.036;2023-04-03T00:20:03;11.83;;;7.73;;
18623;SDS011;9441;51.420;7.036;2023-04-03T00:21:05;13.17;;;7.43;;
18623;SDS011;9441;51.420;7.036;2023-04-03T00:22:07;15.03;;;7.70;;
18623;SDS011;9441;51.420;7.036;2023-04-03T00:23:09;12.60;;;7.93;;
18623;SDS011;9441;51.420;7.036;2023-04-03T00:24:11;13.97;;;7.77;;
18623;SDS011;9441;51.420;7.036;2023-04-03T00:25:12;12.33;;;7.17;;
18623;SDS011;9441;51.420;7.036;2023-04-03T00:26:16;13.60;;;7.20;;
18623;SDS011;9441;51.420;7.036;2023-04-03T00:27:19;14.53;;;7.47;;
18623;SDS011;9441;51.420;7.036;2023-04-03T00:28:20;13.57;;;7.73;;
18623;SDS011;9441;51.420;7.036;2023-04-03T00:29:23;13.63;;;7.57;;
18623;SDS011;9441;51.420;7.036;2023-04-03T00:30:25;14.67;;;7.90;;
18623;SDS011;9441;51.420;7.036;2023-04-03T00:31:27;11.03;;;7.40;;
18623;SDS011;9441;51.420;7.036;2023-04-03T00:32:29;12.77;;;7.60;;
18623;SDS011;9441;51.420;7.036;2023-04-03T00:33:31;11.33;;;7.13;;
18623;SDS011;9441;51.420;7.036;2023-04-03T00:34:32;13.53;;;7.50;;
18623;SDS011;9441;51.420;7.036;2023-04-03T00:35:35;12.53;;;7.80;;
18623;SDS011;9441;51.420;7.036;2023-04-03T00:36:36;14.97;;;8.33;;
18623;SDS011;9441;51.420;7.036;2023-04-03T00:37:38;13.77;;;7.57;;
18623;SDS011;9441;51.420;7.036;2023-04-03T00:38:40;11.50;;;7.03;;
18623;SDS011;9441;51.420;7.036;2023-04-03T00:39:42;14.27;;;8.03;;
18623;SDS011;9441;51.420;7.036;2023-04-03T00:40:45;12.27;;;7.60;;
18623;SDS011;9441;51.420;7.036;2023-04-03T00:41:49;16.43;;;7.63;;
18623;SDS011;9441;51.420;7.036;2023-04-03T00:42:51;18.27;;;8.73;;
18623;SDS011;9441;51.420;7.036;2023-04-03T00:43:54;17.77;;;8.27;;
18623;SDS011;9441;51.420;7.036;2023-04-03T00:46:22;17.07;;;8.13;;
18623;SDS011;9441;51.420;7.036;2023-04-03T00:47:24;13.77;;;7.87;;
18623;SDS011;9441;51.420;7.036;2023-04-03T00:48:27;11.60;;;7.70;;
18623;SDS011;9441;51.420;7.036;2023-04-03T00:49:31;13.43;;;7.63;;
18623;SDS011;9441;51.420;7.036;2023-04-03T00:50:33;12.43;;;7.77;;
18623;SDS011;9441;51.420;7.036;2023-04-03T00:51:36;14.33;;;7.93;;
18623;SDS011;9441;51.420;7.036;2023-04-03T00:52:37;14.50;;;7.70;;
18623;SDS011;9441;51.420;7.036;2023-04-03T00:53:41;11.70;;;7.70;;
18623;SDS011;9441;51.420;7.036;2023-04-03T00:54:45;14.17;;;8.40;;
18623;SDS011;9441;51.420;7.036;2023-04-03T00:55:48;14.10;;;7.83;;
18623;SDS011;9441;51.420;7.036;2023-04-03T00:56:53;15.30;;;7.77;;
18623;SDS011;9441;51.420;7.036;2023-04-03T00:57:56;13.23;;;7.80;;
18623;SDS011;9441;51.420;7.036;2023-04-03T00:59:00;12.23;;;8.07;;
18623;SDS011;9441;51.420;7.036;2023-04-03T01:00:04;15.27;;;8.70;;
18623;SDS011;9441;51.420;7.036;2023-04-03T01:01:07;13.37;;;8.00;;
18623;SDS011;9441;51.420;7.036;2023-04-03T01:02:10;15.80;;;8.17;;
18623;SDS011;9441;51.420;7.036;2023-04-03T01:03:14;12.30;;;7.93;;
18623;SDS011;9441;51.420;7.036;2023-04-03T01:04:26;13.93;;;7.80;;
18623;SDS011;9441;51.420;7.036;2023-04-03T01:05:28;16.23;;;8.17;;
18623;SDS011;9441;51.420;7.036;2023-04-03T01:06:30;16.30;;;8.80;;
18623;SDS011;9441;51.420;7.036;2023-04-03T01:07:38;15.93;;;8.87;;
18623;SDS011;9441;51.420;7.036;2023-04-03T01:08:41;13.83;;;7.73;;
18623;SDS011;9441;51.420;7.036;2023-04-03T01:09:43;18.50;;;8.80;;
18623;SDS011;9441;51.420;7.036;2023-04-03T01:10:49;18.30;;;8.13;;
18623;SDS011;9441;51.420;7.036;2023-04-03T01:11:52;13.07;;;7.93;;
18623;SDS011;9441;51.420;7.036;2023-04-03T01:12:55;16.07;;;8.20;;
18623;SDS011;9441;51.420;7.036;2023-04-03T01:13:57;13.77;;;8.03;;
18623;SDS011;9441;51.420;7.036;2023-04-03T01:15:01;13.53;;;8.37;;
18623;SDS011;9441;51.420;7.036;2023-04-03T01:16:03;16.80;;;8.00;;
18623;SDS011;9441;51.420;7.036;2023-04-03T01:17:20;13.63;;;7.40;;
18623;SDS011;9441;51.420;7.036;2023-04-03T01:18:25;20.27;;;8.87;;
18623;SDS011;9441;51.420;7.036;2023-04-03T01:19:28;17.73;;;8.20;;
18623;SDS011;9441;51.420;7.036;2023-04-03T01:20:34;13.87;;;8.43;;
18623;SDS011;9441;51.420;7.036;2023-04-03T01:21:49;15.63;;;8.37;;
18623;SDS011;9441;51.420;7.036;2023-04-03T01:22:56;16.33;;;8.20;;
18623;SDS011;9441;51.420;7.036;2023-04-03T01:24:06;14.00;;;7.80;;
18623;SDS011;9441;51.420;7.036;2023-04-03T01:25:12;13.53;;;7.80;;
18623;SDS011;9441;51.420;7.036;2023-04-03T01:26:13;13.37;;;8.23;;
18623;SDS011;9441;51.420;7.036;2023-04-03T01:27:18;14.40;;;7.87;;
18623;SDS011;9441;51.420;7.036;2023-04-03T01:28:20;13.03;;;8.10;;
18623;SDS011;9441;51.420;7.036;2023-04-03T01:29:23;13.60;;;8.20;;
18623;SDS011;9441;51.420;7.036;2023-04-03T01:30:26;14.07;;;8.57;;
18623;SDS011;9441;51.420;7.036;2023-04-03T01:31:31;13.67;;;8.13;;
18623;SDS011;9441;51.420;7.036;2023-04-03T01:32:35;16.50;;;8.50;;
18623;SDS011;9441;51.420;7.036;2023-04-03T01:33:38;17.53;;;8.03;;
18623;SDS011;9441;51.420;7.036;2023-04-03T01:34:40;17.50;;;8.03;;
18623;SDS011;9441;51.420;7.036;2023-04-03T01:35:42;18.10;;;8.90;;
18623;SDS011;9441;51.420;7.036;2023-04-03T01:36:44;13.47;;;8.00;;
18623;SDS011;9441;51.420;7.036;2023-04-03T01:37:46;14.37;;;7.93;;
18623;SDS011;9441;51.420;7.036;2023-04-03T01:38:47;13.47;;;8.07;;
18623;SDS011;9441;51.420;7.036;2023-04-03T01:39:50;14.60;;;8.00;;
18623;SDS011;9441;51.420;7.036;2023-04-03T01:40:51;14.30;;;8.03;;
18623;SDS011;9441;51.420;7.036;2023-04-03T01:41:54;13.73;;;8.10;;
18623;SDS011;9441;51.420;7.036;2023-04-03T01:43:03;14.77;;;8.20;;
18623;SDS011;9441;51.420;7.036;2023-04-03T01:44:06;14.47;;;8.17;;
18623;SDS011;9441;51.420;7.036;2023-04-03T01:45:08;13.37;;;7.73;;
18623;SDS011;9441;51.420;7.036;2023-04-03T01:46:10;15.47;;;8.23;;
18623;SDS011;9441;51.420;7.036;2023-04-03T01:47:12;14.83;;;7.80;;
18623;SDS011;9441;51.420;7.036;2023-04-03T01:48:16;16.67;;;8.50;;
18623;SDS011;9441;51.420;7.036;2023-04-03T01:49:17;14.50;;;8.07;;
18623;SDS011;9441;51.420;7.036;2023-04-03T01:50:20;11.53;;;7.43;;
18623;SDS011;9441;51.420;7.036;2023-04-03T01:51:22;14.70;;;8.33;;
18623;SDS011;9441;51.420;7.036;2023-04-03T01:52:24;12.07;;;8.07;;
18623;SDS011;9441;51.420;7.036;2023-04-03T01:53:26;14.53;;;7.50;;
18623;SDS011;9441;51.420;7.036;2023-04-03T01:54:28;10.30;;;7.40;;
18623;SDS011;9441;51.420;7.036;2023-04-03T01:55:30;13.30;;;7.87;;
18623;SDS011;9441;51.420;7.036;2023-04-03T01:56:32;15.33;;;8.37;;
18623;SDS011;9441;51.420;7.036;2023-04-03T01:57:34;11.77;;;7.33;;
18623;SDS011;9441;51.420;7.036;2023-04-03T01:58:37;12.27;;;7.67;;
18623;SDS011;9441;51.420;7.036;2023-04-03T01:59:39;13.57;;;7.93;;
18623;SDS011;9441;51.420;7.036;2023-04-03T02:00:41;14.30;;;7.70;;
18623;SDS011;9441;51.420;7.036;2023-04-03T02:01:42;12.03;;;7.60;;
18623;SDS011;9441;51.420;7.036;2023-04-03T02:02:46;15.60;;;7.80;;
18623;SDS011;9441;51.420;7.036;2023-04-03T02:03:49;13.30;;;7.90;;
18623;SDS011;9441;51.420;7.036;2023-04-03T02:04:51;18.97;;;8.33;;
18623;SDS011;9441;51.420;7.036;2023-04-03T02:05:53;11.87;;;7.67;;
18623;SDS011;9441;51.420;7.036;2023-04-03T02:06:55;13.63;;;8.17;;
18623;SDS011;9441;51.420;7.036;2023-04-03T02:07:56;14.13;;;7.80;;
18623;SDS011;9441;51.420;7.036;2023-04-03T02:08:59;14.47;;;8.13;;
18623;SDS011;9441;51.420;7.036;2023-04-03T02:10:00;13.70;;;8.07;;
18623;SDS011;9441;51.420;7.036;2023-04-03T02:11:02;10.47;;;7.43;;
18623;SDS011;9441;51.420;7.036;2023-04-03T02:12:04;13.37;;;8.33;;
18623;SDS011;9441;51.420;7.036;2023-04-03T02:13:06;11.80;;;8.00;;
18623;SDS011;9441;51.420;7.036;2023-04-03T02:14:09;14.57;;;8.73;;
18623;SDS011;9441;51.420;7.036;2023-04-03T02:15:11;13.50;;;8.27;;
18623;SDS011;9441;51.420;7.036;2023-04-03T02:16:12;13.93;;;8.47;;
18623;SDS011;9441;51.420;7.036;2023-04-03T02:17:15;17.47;;;8.30;;
18623;SDS011;9441;51.420;7.036;2023-04-03T02:18:17;11.43;;;8.07;;
18623;SDS011;9441;51.420;7.036;2023-04-03T02:19:20;15.57;;;8.70;;
18623;SDS011;9441;51.420;7.036;2023-04-03T02:20:22;16.00;;;8.13;;
18623;SDS011;9441;51.420;7.036;2023-04-03T02:21:25;14.63;;;8.23;;
18623;SDS011;9441;51.420;7.036;2023-04-03T02:22:27;14.03;;;8.13;;
18623;SDS011;9441;51.420;7.036;2023-04-03T02:23:29;17.10;;;8.50;;
18623;SDS011;9441;51.420;7.036;2023-04-03T02:24:31;15.07;;;8.47;;
18623;SDS011;9441;51.420;7.036;2023-04-03T02:25:33;14.13;;;7.97;;
18623;SDS011;9441;51.420;7.036;2023-04-03T02:26:34;13.90;;;8.50;;
18623;SDS011;9441;51.420;7.036;2023-04-03T02:27:39;12.43;;;7.87;;
18623;SDS011;9441;51.420;7.036;2023-04-03T02:28:40;15.60;;;8.13;;
18623;SDS011;9441;51.420;7.036;2023-04-03T02:29:42;15.90;;;8.27;;
18623;SDS011;9441;51.420;7.036;2023-04-03T02:30:43;15.50;;;8.70;;
18623;SDS011;9441;51.420;7.036;2023-04-03T02:31:49;14.97;;;8.83;;
18623;SDS011;9441;51.420;7.036;2023-04-03T02:32:51;16.97;;;8.30;;
18623;SDS011;9441;51.420;7.036;2023-04-03T02:33:53;13.27;;;8.60;;
18623;SDS011;9441;51.420;7.036;2023-04-03T02:34:56;15.20;;;8.63;;
18623;SDS011;9441;51.420;7.036;2023-04-03T02:35:59;11.70;;;7.93;;
18623;SDS011;9441;51.420;7.036;2023-04-03T02:37:00;14.60;;;8.57;;
18623;SDS011;9441;51.420;7.036;2023-04-03T02:38:03;14.00;;;8.27;;
18623;SDS011;9441;51.420;7.036;2023-04-03T02:39:04;13.87;;;8.17;;
18623;SDS011;9441;51.420;7.036;2023-04-03T02:40:08;13.47;;;8.37;;
18623;SDS011;9441;51.420;7.036;2023-04-03T02:41:11;16.43;;;8.73;;
18623;SDS011;9441;51.420;7.036;2023-04-03T02:42:14;15.00;;;7.73;;
18623;SDS011;9441;51.420;7.036;2023-04-03T02:43:15;16.40;;;8.57;;
18623;SDS011;9441;51.420;7.036;2023-04-03T02:44:17;12.23;;;8.20;;
18623;SDS011;9441;51.420;7.036;2023-04-03T02:45:20;12.50;;;8.37;;
18623;SDS011;9441;51.420;7.036;2023-04-03T02:46:22;14.13;;;8.17;;
18623;SDS011;9441;51.420;7.036;2023-04-03T02:47:23;17.27;;;8.33;;
18623;SDS011;9441;51.420;7.036;2023-04-03T02:48:26;16.20;;;8.50;;
18623;SDS011;9441;51.420;7.036;2023-04-03T02:49:28;14.63;;;8.33;;
18623;SDS011;9441;51.420;7.036;2023-04-03T02:50:31;14.50;;;8.43;;
18623;SDS011;9441;51.420;7.036;2023-04-03T02:51:33;15.87;;;8.33;;
18623;SDS011;9441;51.420;7.036;2023-04-03T02:52:35;17.97;;;8.30;;
18623;SDS011;9441;51.420;7.036;2023-04-03T02:53:37;16.87;;;8.37;;
18623;SDS011;9441;51.420;7.036;2023-04-03T02:54:45;12.83;;;8.10;;
18623;SDS011;9441;51.420;7.036;2023-04-03T02:55:46;13.07;;;7.63;;
18623;SDS011;9441;51.420;7.036;2023-04-03T02:56:49;14.20;;;8.13;;
18623;SDS011;9441;51.420;7.036;2023-04-03T02:57:50;14.13;;;8.03;;
18623;SDS011;9441;51.420;7.036;2023-04-03T02:58:53;13.83;;;8.50;;
18623;SDS011;9441;51.420;7.036;2023-04-03T02:59:54;11.83;;;8.03;;
18623;SDS011;9441;51.420;7.036;2023-04-03T03:00:57;13.00;;;7.83;;
18623;SDS011;9441;51.420;7.036;2023-04-03T03:01:58;13.20;;;7.73;;
18623;SDS011;9441;51.420;7.036;2023-04-03T03:03:00;15.63;;;7.60;;
18623;SDS011;9441;51.420;7.036;2023-04-03T03:04:02;15.00;;;8.27;;
18623;SDS011;9441;51.420;7.036;2023-04-03T03:05:04;13.00;;;7.60;;
18623;SDS011;9441;51.420;7.036;2023-04-03T03:06:08;13.33;;;7.67;;
18623;SDS011;9441;51.420;7.036;2023-04-03T03:07:11;14.63;;;7.60;;
18623;SDS011;9441;51.420;7.036;2023-04-03T03:08:12;14.03;;;7.70;;
18623;SDS011;9441;51.420;7.036;2023-04-03T03:09:15;14.73;;;7.73;;
18623;SDS011;9441;51.420;7.036;2023-04-03T03:10:16;14.40;;;7.77;;
18623;SDS011;9441;51.420;7.036;2023-04-03T03:11:19;14.17;;;7.87;;
18623;SDS011;9441;51.420;7.036;2023-04-03T03:12:21;15.07;;;7.63;;
18623;SDS011;9441;51.420;7.036;2023-04-03T03:13:24;15.60;;;7.97;;
18623;SDS011;9441;51.420;7.036;2023-04-03T03:14:26;14.47;;;7.77;;
18623;SDS011;9441;51.420;7.036;2023-04-03T03:15:28;13.93;;;7.50;;
18623;SDS011;9441;51.420;7.036;2023-04-03T03:16:30;12.17;;;7.17;;
18623;SDS011;9441;51.420;7.036;2023-04-03T03:17:32;13.03;;;7.27;;
18623;SDS011;9441;51.420;7.036;2023-04-03T03:18:33;14.27;;;6.87;;
18623;SDS011;9441;51.420;7.036;2023-04-03T03:19:36;13.13;;;6.70;;
18623;SDS011;9441;51.420;7.036;2023-04-03T03:20:37;13.40;;;7.10;;
18623;SDS011;9441;51.420;7.036;2023-04-03T03:21:41;12.07;;;7.30;;
18623;SDS011;9441;51.420;7.036;2023-04-03T03:22:42;10.93;;;6.73;;
18623;SDS011;9441;51.420;7.036;2023-04-03T03:23:45;18.00;;;7.17;;
18623;SDS011;9441;51.420;7.036;2023-04-03T03:24:46;13.93;;;6.77;;
18623;SDS011;9441;51.420;7.036;2023-04-03T03:25:48;11.00;;;7.00;;
18623;SDS011;9441;51.420;7.036;2023-04-03T03:26:50;12.90;;;7.07;;
18623;SDS011;9441;51.420;7.036;2023-04-03T03:27:52;11.77;;;7.17;;
18623;SDS011;9441;51.420;7.036;2023-04-03T03:28:53;10.23;;;6.97;;
18623;SDS011;9441;51.420;7.036;2023-04-03T03:29:56;14.07;;;7.07;;
18623;SDS011;9441;51.420;7.036;2023-04-03T03:30:57;14.67;;;6.70;;
18623;SDS011;9441;51.420;7.036;2023-04-03T03:32:00;11.20;;;6.50;;
18623;SDS011;9441;51.420;7.036;2023-04-03T03:33:01;11.67;;;6.60;;
18623;SDS011;9441;51.420;7.036;2023-04-03T03:34:03;13.03;;;6.67;;
18623;SDS011;9441;51.420;7.036;2023-04-03T03:35:05;11.03;;;6.30;;
18623;SDS011;9441;51.420;7.036;2023-04-03T03:36:07;12.50;;;6.73;;
18623;SDS011;9441;51.420;7.036;2023-04-03T03:37:11;10.87;;;6.20;;
18623;SDS011;9441;51.420;7.036;2023-04-03T03:38:14;17.20;;;7.30;;
18623;SDS011;9441;51.420;7.036;2023-04-03T03:39:15;16.63;;;6.07;;
18623;SDS011;9441;51.420;7.036;2023-04-03T03:40:19;14.03;;;6.80;;
18623;SDS011;9441;51.420;7.036;2023-04-03T03:41:20;13.27;;;6.53;;
18623;SDS011;9441;51.420;7.036;2023-04-03T03:42:23;10.30;;;6.20;;
18623;SDS011;9441;51.420;7.036;2023-04-03T03:43:24;11.47;;;6.33;;
18623;SDS011;9441;51.420;7.036;2023-04-03T03:44:28;13.67;;;6.70;;
18623;SDS011;9441;51.420;7.036;2023-04-03T03:45:29;11.63;;;7.00;;
18623;SDS011;9441;51.420;7.036;2023-04-03T03:46:31;14.03;;;5.90;;
18623;SDS011;9441;51.420;7.036;2023-04-03T03:47:33;10.73;;;6.00;;
18623;SDS011;9441;51.420;7.036;2023-04-03T03:48:36;10.10;;;6.00;;
18623;SDS011;9441;51.420;7.036;2023-04-03T03:49:37;11.37;;;6.60;;
18623;SDS011;9441;51.420;7.036;2023-04-03T03:50:39;10.97;;;6.23;;
18623;SDS011;9441;51.420;7.036;2023-04-03T03:51:41;9.83;;;5.67;;
18623;SDS011;9441;51.420;7.036;2023-04-03T03:52:44;11.83;;;6.47;;
18623;SDS011;9441;51.420;7.036;2023-04-03T03:53:46;11.57;;;6.33;;
18623;SDS011;9441;51.420;7.036;2023-04-03T03:54:51;10.10;;;6.23;;
18623;SDS011;9441;51.420;7.036;2023-04-03T03:55:54;14.37;;;6.20;;
18623;SDS011;9441;51.420;7.036;2023-04-03T03:56:58;16.10;;;5.83;;
18623;SDS011;9441;51.420;7.036;2023-04-03T03:58:00;11.10;;;5.80;;
18623;SDS011;9441;51.420;7.036;2023-04-03T03:59:03;13.00;;;6.53;;
18623;SDS011;9441;51.420;7.036;2023-04-03T04:00:06;11.23;;;6.03;;
18623;SDS011;9441;51.420;7.036;2023-04-03T04:01:15;14.83;;;6.30;;
18623;SDS011;9441;51.420;7.036;2023-04-03T04:02:21;9.83;;;6.13;;
18623;SDS011;9441;51.420;7.036;2023-04-03T04:03:22;11.07;;;5.97;;
18623;SDS011;9441;51.420;7.036;2023-04-03T04:04:25;10.53;;;6.20;;
18623;SDS011;9441;51.420;7.036;2023-04-03T04:05:27;16.07;;;6.00;;
18623;SDS011;9441;51.420;7.036;2023-04-03T04:06:29;10.97;;;6.07;;
18623;SDS011;9441;51.420;7.036;2023-04-03T04:07:33;13.47;;;6.00;;
18623;SDS011;9441;51.420;7.036;2023-04-03T04:08:38;11.60;;;5.87;;
18623;SDS011;9441;51.420;7.036;2023-04-03T04:09:42;12.23;;;5.60;;
18623;SDS011;9441;51.420;7.036;2023-04-03T04:10:43;11.20;;;6.10;;
18623;SDS011;9441;51.420;7.036;2023-04-03T04:11:48;10.60;;;5.70;;
18623;SDS011;9441;51.420;7.036;2023-04-03T04:12:50;13.60;;;5.73;;
18623;SDS011;9441;51.420;7.036;2023-04-03T04:13:56;12.87;;;5.63;;
18623;SDS011;9441;51.420;7.036;2023-04-03T04:15:01;11.80;;;5.67;;
18623;SDS011;9441;51.420;7.036;2023-04-03T04:16:04;10.67;;;5.17;;
18623;SDS011;9441;51.420;7.036;2023-04-03T04:17:07;8.83;;;5.00;;
18623;SDS011;9441;51.420;7.036;2023-04-03T04:18:10;9.13;;;5.00;;
18623;SDS011;9441;51.420;7.036;2023-04-03T04:19:15;9.20;;;4.40;;
18623;SDS011;9441;51.420;7.036;2023-04-03T04:20:18;9.57;;;5.27;;
18623;SDS011;9441;51.420;7.036;2023-04-03T04:21:21;7.40;;;4.83;;
18623;SDS011;9441;51.420;7.036;2023-04-03T04:22:25;12.37;;;5.87;;
18623;SDS011;9441;51.420;7.036;2023-04-03T04:23:28;8.57;;;5.33;;
18623;SDS011;9441;51.420;7.036;2023-04-03T04:24:30;11.43;;;5.10;;
18623;SDS011;9441;51.420;7.036;2023-04-03T04:25:33;10.13;;;5.20;;
18623;SDS011;9441;51.420;7.036;2023-04-03T04:26:35;8.33;;;4.57;;
18623;SDS011;9441;51.420;7.036;2023-04-03T04:27:37;8.23;;;4.77;;
18623;SDS011;9441;51.420;7.036;2023-04-03T04:28:39;9.33;;;5.10;;
18623;SDS011;9441;51.420;7.036;2023-04-03T04:29:42;9.60;;;4.93;;
18623;SDS011;9441;51.420;7.036;2023-04-03T04:30:43;11.63;;;4.90;;
18623;SDS011;9441;51.420;7.036;2023-04-03T04:31:47;12.10;;;5.00;;
18623;SDS011;9441;51.420;7.036;2023-04-03T04:32:48;8.57;;;4.20;;
18623;SDS011;9441;51.420;7.036;2023-04-03T04:33:52;7.80;;;4.53;;
18623;SDS011;9441;51.420;7.036;2023-04-03T04:34:53;10.17;;;5.10;;
18623;SDS011;9441;51.420;7.036;2023-04-03T04:35:55;11.63;;;4.83;;
18623;SDS011;9441;51.420;7.036;2023-04-03T04:36:57;7.13;;;4.67;;
18623;SDS011;9441;51.420;7.036;2023-04-03T04:38:00;10.23;;;5.00;;
18623;SDS011;9441;51.420;7.036;2023-04-03T04:39:02;10.63;;;4.93;;
18623;SDS011;9441;51.420;7.036;2023-04-03T04:40:07;8.47;;;4.90;;
18623;SDS011;9441;51.420;7.036;2023-04-03T04:41:08;6.53;;;4.50;;
18623;SDS011;9441;51.420;7.036;2023-04-03T04:42:11;11.97;;;4.00;;
18623;SDS011;9441;51.420;7.036;2023-04-03T04:43:14;9.63;;;4.57;;
18623;SDS011;9441;51.420;7.036;2023-04-03T04:44:18;7.57;;;4.60;;
18623;SDS011;9441;51.420;7.036;2023-04-03T04:45:20;8.80;;;4.30;;
18623;SDS011;9441;51.420;7.036;2023-04-03T04:46:23;11.23;;;4.70;;
18623;SDS011;9441;51.420;7.036;2023-04-03T04:47:29;10.60;;;4.37;;
18623;SDS011;9441;51.420;7.036;2023-04-03T04:48:31;7.63;;;4.50;;
18623;SDS011;9441;51.420;7.036;2023-04-03T04:49:32;8.87;;;4.17;;
18623;SDS011;9441;51.420;7.036;2023-04-03T04:50:35;8.83;;;4.70;;
18623;SDS011;9441;51.420;7.036;2023-04-03T04:51:37;7.03;;;4.33;;
18623;SDS011;9441;51.420;7.036;2023-04-03T04:52:39;12.23;;;4.70;;
18623;SDS011;9441;51.420;7.036;2023-04-03T04:53:42;7.53;;;4.23;;
18623;SDS011;9441;51.420;7.036;2023-04-03T04:54:46;10.73;;;4.37;;
18623;SDS011;9441;51.420;7.036;2023-04-03T04:55:50;7.20;;;4.20;;
18623;SDS011;9441;51.420;7.036;2023-04-03T04:56:52;10.00;;;4.73;;
18623;SDS011;9441;51.420;7.036;2023-04-03T04:57:54;9.47;;;4.33;;
18623;SDS011;9441;51.420;7.036;2023-04-03T04:58:56;9.30;;;4.03;;
18623;SDS011;9441;51.420;7.036;2023-04-03T04:59:59;8.03;;;3.90;;
18623;SDS011;9441;51.420;7.036;2023-04-03T05:01:01;13.50;;;4.17;;
18623;SDS011;9441;51.420;7.036;2023-04-03T05:02:04;10.43;;;4.00;;
18623;SDS011;9441;51.420;7.036;2023-04-03T05:03:06;8.47;;;4.17;;
18623;SDS011;9441;51.420;7.036;2023-04-03T05:04:08;14.13;;;4.30;;
18623;SDS011;9441;51.420;7.036;2023-04-03T05:05:09;7.73;;;3.47;;
18623;SDS011;9441;51.420;7.036;2023-04-03T05:06:12;11.03;;;4.20;;
18623;SDS011;9441;51.420;7.036;2023-04-03T05:07:13;9.40;;;4.10;;
18623;SDS011;9441;51.420;7.036;2023-04-03T05:08:16;11.60;;;4.03;;
18623;SDS011;9441;51.420;7.036;2023-04-03T05:09:17;9.07;;;4.10;;
18623;SDS011;9441;51.420;7.036;2023-04-03T05:10:21;9.03;;;4.23;;
18623;SDS011;9441;51.420;7.036;2023-04-03T05:11:23;6.97;;;3.70;;
18623;SDS011;9441;51.420;7.036;2023-04-03T05:12:27;7.27;;;3.43;;
18623;SDS011;9441;51.420;7.036;2023-04-03T05:13:32;8.13;;;3.90;;
18623;SDS011;9441;51.420;7.036;2023-04-03T05:14:35;8.23;;;3.60;;
18623;SDS011;9441;51.420;7.036;2023-04-03T05:15:40;4.53;;;3.40;;
18623;SDS011;9441;51.420;7.036;2023-04-03T05:16:42;6.63;;;3.63;;
18623;SDS011;9441;51.420;7.036;2023-04-03T05:17:44;8.07;;;3.47;;
18623;SDS011;9441;51.420;7.036;2023-04-03T05:18:48;9.60;;;3.80;;
18623;SDS011;9441;51.420;7.036;2023-04-03T05:19:53;9.27;;;3.80;;
18623;SDS011;9441;51.420;7.036;2023-04-03T05:20:56;9.07;;;3.67;;
18623;SDS011;9441;51.420;7.036;2023-04-03T05:21:59;11.70;;;3.60;;
18623;SDS011;9441;51.420;7.036;2023-04-03T05:23:03;7.57;;;3.57;;
18623;SDS011;9441;51.420;7.036;2023-04-03T05:24:08;7.50;;;3.50;;
18623;SDS011;9441;51.420;7.036;2023-04-03T05:25:12;7.60;;;3.43;;
18623;SDS011;9441;51.420;7.036;2023-04-03T05:26:17;12.70;;;4.00;;
18623;SDS011;9441;51.420;7.036;2023-04-03T05:27:23;9.30;;;3.67;;
18623;SDS011;9441;51.420;7.036;2023-04-03T05:28:28;7.37;;;3.77;;
18623;SDS011;9441;51.420;7.036;2023-04-03T05:29:29;10.13;;;3.80;;
18623;SDS011;9441;51.420;7.036;2023-04-03T05:30:33;10.47;;;3.33;;
18623;SDS011;9441;51.420;7.036;2023-04-03T05:31:37;7.73;;;3.30;;
18623;SDS011;9441;51.420;7.036;2023-04-03T05:32:40;9.20;;;3.10;;
18623;SDS011;9441;51.420;7.036;2023-04-03T05:33:49;8.67;;;3.30;;
18623;SDS011;9441;51.420;7.036;2023-04-03T05:34:52;11.07;;;3.10;;
18623;SDS011;9441;51.420;7.036;2023-04-03T05:36:01;5.30;;;3.20;;
18623;SDS011;9441;51.420;7.036;2023-04-03T05:37:06;6.77;;;3.10;;
18623;SDS011;9441;51.420;7.036;2023-04-03T05:38:08;10.13;;;3.40;;
18623;SDS011;9441;51.420;7.036;2023-04-03T05:39:11;8.47;;;3.40;;
18623;SDS011;9441;51.420;7.036;2023-04-03T05:40:15;9.60;;;3.27;;
18623;SDS011;9441;51.420;7.036;2023-04-03T05:41:20;10.30;;;3.10;;
18623;SDS011;9441;51.420;7.036;2023-04-03T05:42:23;5.70;;;2.73;;
18623;SDS011;9441;51.420;7.036;2023-04-03T05:43:25;9.77;;;3.30;;
18623;SDS011;9441;51.420;7.036;2023-04-03T05:44:27;10.40;;;3.30;;
18623;SDS011;9441;51.420;7.036;2023-04-03T05:45:29;10.17;;;3.00;;
18623;SDS011;9441;51.420;7.036;2023-04-03T05:46:32;8.43;;;2.97;;
18623;SDS011;9441;51.420;7.036;2023-04-03T05:47:37;9.60;;;3.30;;
18623;SDS011;9441;51.420;7.036;2023-04-03T05:48:40;7.27;;;3.17;;
18623;SDS011;9441;51.420;7.036;2023-04-03T05:49:45;7.53;;;2.83;;
18623;SDS011;9441;51.420;7.036;2023-04-03T05:50:49;12.93;;;3.57;;
18623;SDS011;9441;51.420;7.036;2023-04-03T05:51:57;6.70;;;3.43;;
18623;SDS011;9441;51.420;7.036;2023-04-03T05:53:02;11.13;;;2.93;;
18623;SDS011;9441;51.420;7.036;2023-04-03T05:54:08;12.07;;;3.40;;
18623;SDS011;9441;51.420;7.036;2023-04-03T05:55:11;6.37;;;3.00;;
18623;SDS011;9441;51.420;7.036;2023-04-03T05:56:13;8.83;;;3.30;;
18623;SDS011;9441;51.420;7.036;2023-04-03T05:57:17;7.90;;;3.00;;
18623;SDS011;9441;51.420;7.036;2023-04-03T05:58:20;10.63;;;3.30;;
18623;SDS011;9441;51.420;7.036;2023-04-03T05:59:23;8.90;;;2.80;;
18623;SDS011;9441;51.420;7.036;2023-04-03T06:00:27;10.70;;;2.97;;
18623;SDS011;9441;51.420;7.036;2023-04-03T06:01:35;7.40;;;2.83;;
18623;SDS011;9441;51.420;7.036;2023-04-03T06:02:37;10.00;;;3.20;;
18623;SDS011;9441;51.420;7.036;2023-04-03T06:03:38;6.70;;;3.40;;
18623;SDS011;9441;51.420;7.036;2023-04-03T06:04:42;7.43;;;3.00;;
18623;SDS011;9441;51.420;7.036;2023-04-03T06:05:44;10.70;;;3.40;;
18623;SDS011;9441;51.420;7.036;2023-04-03T06:06:47;10.07;;;3.80;;
18623;SDS011;9441;51.420;7.036;2023-04-03T06:07:49;12.20;;;3.37;;
18623;SDS011;9441;51.420;7.036;2023-04-03T06:08:51;5.43;;;3.17;;
18623;SDS011;9441;51.420;7.036;2023-04-03T06:09:53;6.50;;;3.07;;
18623;SDS011;9441;51.420;7.036;2023-04-03T06:10:56;8.70;;;3.37;;
18623;SDS011;9441;51.420;7.036;2023-04-03T06:11:57;5.87;;;2.90;;
18623;SDS011;9441;51.420;7.036;2023-04-03T06:13:01;9.23;;;3.10;;
18623;SDS011;9441;51.420;7.036;2023-04-03T06:14:04;12.17;;;3.33;;
18623;SDS011;9441;51.420;7.036;2023-04-03T06:15:07;6.80;;;3.10;;
18623;SDS011;9441;51.420;7.036;2023-04-03T06:16:11;7.30;;;3.27;;
18623;SDS011;9441;51.420;7.036;2023-04-03T06:17:15;7.70;;;3.17;;
18623;SDS011;9441;51.420;7.036;2023-04-03T06:18:18;7.57;;;2.80;;
18623;SDS011;9441;51.420;7.036;2023-04-03T06:19:21;8.47;;;3.20;;
18623;SDS011;9441;51.420;7.036;2023-04-03T06:20:25;7.53;;;3.03;;
18623;SDS011;9441;51.420;7.036;2023-04-03T06:21:28;11.40;;;2.90;;